Time,TemperatureF,DewpointF,PressureIn,WindDirection,WindDirectionDegrees,WindSpeedMPH,WindSpeedGustMPH,Humidity,HourlyPrecipIn,Conditions,Clouds,dailyrainin,SoftwareType,DateUTC
2015-01-31 00:03:00,65.2,51.4,30.14,NNE,23,3.4,8.3,61,0.00,,,0.00,WUHU216HW,2015-01-31 05:03:00,
2015-01-31 00:08:00,65.2,50.9,30.14,NNE,23,5.4,7.2,60,0.00,,,0.00,WUHU216HW,2015-01-31 05:08:00,
2015-01-31 00:13:00,65.2,50.0,30.14,NE,45,4.7,7.6,58,0.00,,,0.00,WUHU216HW,2015-01-31 05:13:00,
2015-01-31 00:18:00,65.2,50.0,30.14,NNE,23,5.4,7.6,58,0.00,,,0.00,WUHU216HW,2015-01-31 05:18:00,
2015-01-31 00:23:00,65.2,48.1,30.14,NNE,23,7.6,8.1,54,0.00,,,0.00,WUHU216HW,2015-01-31 05:23:00,
2015-01-31 00:28:00,65.2,48.1,30.14,NNE,23,4.7,8.1,54,0.00,,,0.00,WUHU216HW,2015-01-31 05:28:00,
2015-01-31 00:33:00,65.2,47.5,30.14,North,0,6.5,8.5,53,0.00,,,0.00,WUHU216HW,2015-01-31 05:33:00,
2015-01-31 00:38:00,65.2,47.5,30.14,NNE,23,4.7,8.5,53,0.00,,,0.00,WUHU216HW,2015-01-31 05:38:00,
2015-01-31 00:43:00,65.0,47.9,30.14,NNE,23,4.0,7.6,54,0.00,,,0.00,WUHU216HW,2015-01-31 05:43:00,
2015-01-31 00:48:00,64.8,47.2,30.14,NE,45,6.9,7.8,53,0.00,,,0.00,WUHU216HW,2015-01-31 05:48:00,
2015-01-31 00:53:00,64.8,48.2,30.14,North,0,4.5,7.8,55,0.00,,,0.00,WUHU216HW,2015-01-31 05:53:00,
2015-01-31 00:58:00,64.8,49.2,30.14,NNE,23,3.4,6.9,57,0.00,,,0.00,WUHU216HW,2015-01-31 05:58:00,
2015-01-31 01:03:00,64.6,48.4,30.14,North,0,1.8,6.9,56,0.00,,,0.00,WUHU216HW,2015-01-31 06:03:00,
2015-01-31 01:08:00,64.4,48.8,30.14,NE,45,4.0,5.4,57,0.00,,,0.00,WUHU216HW,2015-01-31 06:08:00,
2015-01-31 01:13:00,64.4,48.8,30.14,North,0,3.4,5.4,57,0.00,,,0.00,WUHU216HW,2015-01-31 06:13:00,
2015-01-31 01:18:00,64.3,49.1,30.14,NE,45,4.7,5.4,58,0.00,,,0.00,WUHU216HW,2015-01-31 06:18:00,
2015-01-31 01:23:00,64.1,48.4,30.14,North,0,3.8,4.9,57,0.00,,,0.00,WUHU216HW,2015-01-31 06:23:00,
2015-01-31 01:28:00,63.9,47.8,30.13,NNW,338,9.2,9.2,56,0.00,,,0.00,WUHU216HW,2015-01-31 06:28:00,
2015-01-31 01:29:00,63.9,48.2,30.13,North,0,4.9,4.9,57,0.00,,,0.00,WUHU216HW,2015-01-31 06:29:00,
2015-01-31 01:33:00,63.9,48.2,30.13,North,0,4.9,9.2,57,0.00,,,0.00,WUHU216HW,2015-01-31 06:33:00,
2015-01-31 01:38:00,63.9,48.2,30.13,North,0,4.9,9.2,57,0.00,,,0.00,WUHU216HW,2015-01-31 06:38:00,
2015-01-31 01:59:00,64.1,50.8,30.13,NE,45,5.4,5.4,62,0.00,,,0.00,WUHU216HW,2015-01-31 06:59:00,
2015-01-31 02:04:00,63.7,50.9,30.13,North,0,2.2,6.5,63,0.00,,,0.00,WUHU216HW,2015-01-31 07:04:00,
2015-01-31 02:09:00,63.7,50.9,30.13,NNW,338,3.8,8.1,63,0.00,,,0.00,WUHU216HW,2015-01-31 07:09:00,
2015-01-31 02:14:00,63.9,51.5,30.13,NE,45,6.3,8.1,64,0.00,,,0.00,WUHU216HW,2015-01-31 07:14:00,
2015-01-31 02:19:00,63.9,51.8,30.13,NW,315,5.6,7.6,65,0.00,,,0.00,WUHU216HW,2015-01-31 07:19:00,
2015-01-31 02:24:00,63.9,51.8,30.13,NE,45,5.4,7.6,65,0.00,,,0.00,WUHU216HW,2015-01-31 07:24:00,
2015-01-31 02:29:00,63.9,51.8,30.13,NNE,23,6.7,6.7,65,0.00,,,0.00,WUHU216HW,2015-01-31 07:29:00,
2015-01-31 02:34:00,63.9,52.8,30.13,North,0,5.8,6.7,67,0.00,,,0.00,WUHU216HW,2015-01-31 07:34:00,
2015-01-31 02:39:00,63.7,52.6,30.13,NNE,23,2.7,5.8,67,0.00,,,0.00,WUHU216HW,2015-01-31 07:39:00,
2015-01-31 02:44:00,63.7,52.6,30.13,North,0,7.4,7.4,67,0.00,,,0.00,WUHU216HW,2015-01-31 07:44:00,
2015-01-31 02:49:00,63.5,52.8,30.13,North,0,4.0,7.4,68,0.00,,,0.00,WUHU216HW,2015-01-31 07:49:00,
2015-01-31 02:54:00,63.5,52.8,30.13,NNW,338,3.4,5.4,68,0.00,,,0.00,WUHU216HW,2015-01-31 07:54:00,
2015-01-31 02:59:00,63.4,53.0,30.13,North,0,4.0,5.4,69,0.00,,,0.00,WUHU216HW,2015-01-31 07:59:00,
2015-01-31 03:04:00,63.2,52.8,30.12,North,0,4.7,4.7,69,0.00,,,0.00,WUHU216HW,2015-01-31 08:04:00,
2015-01-31 03:09:00,63.2,53.3,30.13,NNE,23,5.1,5.1,70,0.00,,,0.00,WUHU216HW,2015-01-31 08:09:00,
2015-01-31 03:14:00,63.4,53.5,30.13,NNE,23,4.7,6.5,70,0.00,,,0.00,WUHU216HW,2015-01-31 08:14:00,
2015-01-31 03:19:00,63.4,53.5,30.13,North,0,3.1,6.5,70,0.00,,,0.00,WUHU216HW,2015-01-31 08:19:00,
2015-01-31 03:24:00,63.4,53.5,30.13,North,0,6.3,6.3,70,0.00,,,0.00,WUHU216HW,2015-01-31 08:24:00,
2015-01-31 03:29:00,63.2,53.3,30.13,NNW,338,3.4,6.3,70,0.00,,,0.00,WUHU216HW,2015-01-31 08:29:00,
2015-01-31 03:34:00,63.2,53.6,30.13,North,0,3.4,5.1,71,0.00,,,0.00,WUHU216HW,2015-01-31 08:34:00,
2015-01-31 03:39:00,63.2,53.6,30.12,NNE,23,1.3,5.1,71,0.00,,,0.00,WUHU216HW,2015-01-31 08:39:00,
2015-01-31 03:44:00,63.2,53.3,30.13,North,0,2.5,4.3,70,0.00,,,0.00,WUHU216HW,2015-01-31 08:44:00,
2015-01-31 03:49:00,63.2,53.3,30.12,North,0,1.1,4.3,70,0.00,,,0.00,WUHU216HW,2015-01-31 08:49:00,
2015-01-31 03:54:00,63.0,53.1,30.12,NNW,338,3.4,4.0,70,0.00,,,0.00,WUHU216HW,2015-01-31 08:54:00,
2015-01-31 03:59:00,63.0,53.1,30.13,NW,315,3.1,3.8,70,0.00,,,0.00,WUHU216HW,2015-01-31 08:59:00,
2015-01-31 04:00:00,63.0,53.1,30.12,NNE,23,3.6,3.6,70,0.00,,,0.00,WUHU216HW,2015-01-31 09:00:00,
2015-01-31 04:04:00,63.0,53.1,30.12,NNE,23,3.6,3.8,70,0.00,,,0.00,WUHU216HW,2015-01-31 09:04:00,
2015-01-31 04:09:00,63.0,53.1,30.12,NNE,23,3.6,3.6,70,0.00,,,0.00,WUHU216HW,2015-01-31 09:09:00,
2015-01-31 04:30:00,62.8,52.9,30.12,West,270,2.5,2.5,70,0.00,,,0.00,WUHU216HW,2015-01-31 09:30:00,
2015-01-31 04:35:00,62.5,52.6,30.12,West,270,1.1,4.3,70,0.00,,,0.00,WUHU216HW,2015-01-31 09:35:00,
2015-01-31 04:40:00,61.9,52.1,30.12,NW,315,1.8,4.3,70,0.00,,,0.00,WUHU216HW,2015-01-31 09:40:00,
2015-01-31 04:45:00,61.4,51.2,30.12,NNW,338,1.8,3.4,69,0.00,,,0.00,WUHU216HW,2015-01-31 09:45:00,
2015-01-31 04:50:00,60.8,50.7,30.12,NW,315,0.7,3.4,69,0.00,,,0.00,WUHU216HW,2015-01-31 09:50:00,
2015-01-31 04:55:00,60.3,50.1,30.12,NW,315,2.9,2.9,69,0.00,,,0.00,WUHU216HW,2015-01-31 09:55:00,
2015-01-31 05:00:00,59.9,50.2,30.12,West,270,2.5,2.9,70,0.00,,,0.00,WUHU216HW,2015-01-31 10:00:00,
2015-01-31 05:05:00,59.8,50.0,30.12,NNW,338,1.1,2.5,70,0.00,,,0.00,WUHU216HW,2015-01-31 10:05:00,
2015-01-31 05:10:00,59.4,50.0,30.12,WNW,293,1.1,1.6,71,0.00,,,0.00,WUHU216HW,2015-01-31 10:10:00,
2015-01-31 05:15:00,59.2,49.9,30.12,NW,315,1.1,1.6,71,0.00,,,0.00,WUHU216HW,2015-01-31 10:15:00,
2015-01-31 05:20:00,59.0,49.7,30.12,NW,315,1.1,1.8,71,0.00,,,0.00,WUHU216HW,2015-01-31 10:20:00,
2015-01-31 05:25:00,58.7,49.3,30.12,WNW,293,0.2,2.5,71,0.00,,,0.00,WUHU216HW,2015-01-31 10:25:00,
2015-01-31 05:30:00,58.5,49.1,30.12,WNW,293,1.1,2.5,71,0.00,,,0.00,WUHU216HW,2015-01-31 10:30:00,
2015-01-31 05:35:00,58.3,49.3,30.13,West,270,1.3,1.8,72,0.00,,,0.00,WUHU216HW,2015-01-31 10:35:00,
2015-01-31 05:40:00,58.0,49.0,30.13,WNW,293,1.6,2.2,72,0.00,,,0.00,WUHU216HW,2015-01-31 10:40:00,
2015-01-31 05:45:00,58.0,49.3,30.13,NW,315,0.9,2.7,73,0.00,,,0.00,WUHU216HW,2015-01-31 10:45:00,
2015-01-31 05:50:00,58.0,49.3,30.13,NW,315,1.3,2.7,73,0.00,,,0.00,WUHU216HW,2015-01-31 10:50:00,
2015-01-31 05:55:00,58.0,49.3,30.13,NW,315,1.3,1.3,73,0.00,,,0.00,WUHU216HW,2015-01-31 10:55:00,
2015-01-31 06:00:00,57.4,48.8,30.14,NW,315,2.5,2.5,73,0.00,,,0.00,WUHU216HW,2015-01-31 11:00:00,
2015-01-31 06:05:00,57.2,49.0,30.14,NNW,338,1.8,2.5,74,0.00,,,0.00,WUHU216HW,2015-01-31 11:05:00,
2015-01-31 06:10:00,57.2,49.0,30.14,NNW,338,1.1,1.8,74,0.00,,,0.00,WUHU216HW,2015-01-31 11:10:00,
2015-01-31 06:15:00,57.1,48.8,30.14,NW,315,1.1,2.0,74,0.00,,,0.00,WUHU216HW,2015-01-31 11:15:00,
2015-01-31 06:20:00,57.1,49.1,30.14,NW,315,1.8,2.0,75,0.00,,,0.00,WUHU216HW,2015-01-31 11:20:00,
2015-01-31 06:25:00,56.9,49.0,30.14,NNW,338,0.9,1.8,75,0.00,,,0.00,WUHU216HW,2015-01-31 11:25:00,
2015-01-31 06:30:00,56.9,49.0,30.14,WNW,293,1.6,1.6,75,0.00,,,0.00,WUHU216HW,2015-01-31 11:30:00,
2015-01-31 06:35:00,56.9,49.0,30.14,North,0,1.1,1.6,75,0.00,,,0.00,WUHU216HW,2015-01-31 11:35:00,
2015-01-31 06:40:00,56.9,49.3,30.14,NNW,338,2.2,3.1,76,0.00,,,0.00,WUHU216HW,2015-01-31 11:40:00,
2015-01-31 06:45:00,56.9,49.3,30.15,North,0,1.8,3.4,76,0.00,,,0.00,WUHU216HW,2015-01-31 11:45:00,
2015-01-31 06:50:00,56.9,49.3,30.15,North,0,3.4,3.4,76,0.00,,,0.00,WUHU216HW,2015-01-31 11:50:00,
2015-01-31 06:55:00,57.1,49.9,30.15,North,0,2.0,3.6,77,0.00,,,0.00,WUHU216HW,2015-01-31 11:55:00,
2015-01-31 07:00:00,57.1,49.5,30.15,North,0,3.1,3.6,76,0.00,,,0.00,WUHU216HW,2015-01-31 12:00:00,
2015-01-31 07:05:00,57.1,49.5,30.15,NNW,338,2.5,3.4,76,0.00,,,0.00,WUHU216HW,2015-01-31 12:05:00,
2015-01-31 07:10:00,56.9,49.7,30.15,NW,315,3.4,3.4,77,0.00,,,0.00,WUHU216HW,2015-01-31 12:10:00,
2015-01-31 07:15:00,56.9,49.7,30.15,NNW,338,1.8,3.4,77,0.00,,,0.00,WUHU216HW,2015-01-31 12:15:00,
2015-01-31 07:20:00,56.9,49.7,30.15,NNW,338,1.1,3.1,77,0.00,,,0.00,WUHU216HW,2015-01-31 12:20:00,
2015-01-31 07:25:00,56.7,49.5,30.15,NNW,338,2.5,3.6,77,0.00,,,0.00,WUHU216HW,2015-01-31 12:25:00,
2015-01-31 07:30:00,56.7,49.5,30.15,NW,315,1.1,3.6,77,0.00,,,0.00,WUHU216HW,2015-01-31 12:30:00,
2015-01-31 07:35:00,56.7,49.5,30.15,NNW,338,1.1,2.5,77,0.00,,,0.00,WUHU216HW,2015-01-31 12:35:00,
2015-01-31 07:40:00,56.7,49.5,30.15,NW,315,2.5,2.5,77,0.00,,,0.00,WUHU216HW,2015-01-31 12:40:00,
2015-01-31 07:45:00,56.9,50.0,30.15,North,0,2.0,2.5,78,0.00,,,0.00,WUHU216HW,2015-01-31 12:45:00,
2015-01-31 07:50:00,57.2,50.4,30.16,NW,315,2.5,2.9,78,0.00,,,0.00,WUHU216HW,2015-01-31 12:50:00,
2015-01-31 07:55:00,57.2,50.4,30.16,NW,315,1.1,2.9,78,0.00,,,0.00,WUHU216HW,2015-01-31 12:55:00,
2015-01-31 08:00:00,57.4,50.6,30.16,NNW,338,1.6,3.1,78,0.00,,,0.00,WUHU216HW,2015-01-31 13:00:00,
2015-01-31 08:05:00,57.6,50.4,30.16,WNW,293,0.4,3.1,77,0.00,,,0.00,WUHU216HW,2015-01-31 13:05:00,
2015-01-31 08:10:00,57.6,50.4,30.17,NNW,338,0.7,2.9,77,0.00,,,0.00,WUHU216HW,2015-01-31 13:10:00,
2015-01-31 08:15:00,58.0,50.8,30.16,NNW,338,0.4,2.5,77,0.00,,,0.00,WUHU216HW,2015-01-31 13:15:00,
2015-01-31 08:20:00,58.3,51.1,30.17,NW,315,1.6,1.6,77,0.00,,,0.00,WUHU216HW,2015-01-31 13:20:00,
2015-01-31 08:25:00,58.7,51.5,30.17,West,270,1.6,2.5,77,0.00,,,0.00,WUHU216HW,2015-01-31 13:25:00,
2015-01-31 08:30:00,59.0,51.8,30.17,West,270,0.9,2.5,77,0.00,,,0.00,WUHU216HW,2015-01-31 13:30:00,
2015-01-31 08:35:00,59.6,52.4,30.17,NW,315,0.7,2.7,77,0.00,,,0.00,WUHU216HW,2015-01-31 13:35:00,
2015-01-31 08:40:00,60.1,52.9,30.17,North,0,0.0,2.7,77,0.00,,,0.00,WUHU216HW,2015-01-31 13:40:00,
2015-01-31 08:45:00,61.2,53.3,30.17,NNE,23,8.1,9.2,75,0.00,,,0.00,WUHU216HW,2015-01-31 13:45:00,
2015-01-31 08:50:00,64.8,53.2,30.17,North,0,13.0,13.0,66,0.00,,,0.00,WUHU216HW,2015-01-31 13:50:00,
2015-01-31 08:55:00,66.1,53.1,30.17,NE,45,9.6,13.0,63,0.00,,,0.00,WUHU216HW,2015-01-31 13:55:00,
2015-01-31 09:00:00,66.8,53.7,30.17,NE,45,8.9,10.7,63,0.00,,,0.00,WUHU216HW,2015-01-31 14:00:00,
2015-01-31 09:05:00,67.1,53.6,30.17,NE,45,12.8,12.8,62,0.00,,,0.00,WUHU216HW,2015-01-31 14:05:00,
2015-01-31 09:10:00,67.3,53.5,30.18,East,90,10.3,12.8,61,0.00,,,0.00,WUHU216HW,2015-01-31 14:10:00,
2015-01-31 09:15:00,67.7,54.6,30.18,ESE,113,5.4,11.0,63,0.00,,,0.00,WUHU216HW,2015-01-31 14:15:00,
2015-01-31 09:20:00,67.9,53.9,30.18,East,90,9.2,9.2,61,0.00,,,0.00,WUHU216HW,2015-01-31 14:20:00,
2015-01-31 09:25:00,67.9,53.5,30.18,ENE,68,7.6,10.5,60,0.00,,,0.00,WUHU216HW,2015-01-31 14:25:00,
2015-01-31 09:30:00,68.0,53.6,30.18,ENE,68,7.6,13.4,60,0.00,,,0.00,WUHU216HW,2015-01-31 14:30:00,
2015-01-31 09:35:00,68.2,53.4,30.19,NE,45,8.9,13.4,59,0.00,,,0.00,WUHU216HW,2015-01-31 14:35:00,
2015-01-31 09:40:00,68.0,53.2,30.19,East,90,6.5,13.2,59,0.00,,,0.00,WUHU216HW,2015-01-31 14:40:00,
2015-01-31 09:45:00,67.7,53.3,30.20,ENE,68,5.6,13.2,60,0.00,,,0.00,WUHU216HW,2015-01-31 14:45:00,
2015-01-31 09:50:00,68.0,53.6,30.20,ENE,68,7.4,8.5,60,0.00,,,0.00,WUHU216HW,2015-01-31 14:50:00,
2015-01-31 09:55:00,68.0,54.6,30.20,NNE,23,7.6,12.1,62,0.00,,,0.00,WUHU216HW,2015-01-31 14:55:00,
2015-01-31 10:00:00,68.4,55.3,30.20,ENE,68,6.9,12.1,63,0.00,,,0.00,WUHU216HW,2015-01-31 15:00:00,
2015-01-31 10:05:00,68.0,53.2,30.20,NE,45,12.8,12.8,59,0.00,,,0.00,WUHU216HW,2015-01-31 15:05:00,
2015-01-31 10:10:00,68.0,54.1,30.20,ENE,68,9.4,12.8,61,0.00,,,0.00,WUHU216HW,2015-01-31 15:10:00,